Time;durP1;ratioP1;P1;durP2;ratioP2;P2;SDS_P1;SDS_P2;PMS_P1;PMS_P2;Temp;Humidity;BMP_temperature;BMP_pressure;BME280_temperature;BME280_humidity;BME280_pressure;Samples;Min_cycle;Max_cycle;Signal;HPM_P1;HPM_P2
2023/06/04 00:02:21;;;;;;;;;;;14.20;58.70;;;;;;5087802;28;19973;-71
2023/06/04 00:04:47;;;;;;;;;;;14.20;58.80;;;;;;5088045;28;20265;-71
2023/06/04 00:07:12;;;;;;;;;;;14.10;58.70;;;;;;5088193;28;20002;-71
2023/06/04 00:09:38;;;;;;;;;;;14.00;58.80;;;;;;5087587;28;19912;-71
2023/06/04 00:12:04;;;;;;;;;;;13.90;58.90;;;;;;5088031;28;19935;-71
2023/06/04 00:14:29;;;;;;;;;;;13.70;59.00;;;;;;5087734;28;19922;-70
2023/06/04 00:16:55;;;;;;;;;;;13.60;59.20;;;;;;5087739;28;19920;-72
2023/06/04 00:19:21;;;;;;;;;;;13.60;59.30;;;;;;5087690;28;20283;-72
2023/06/04 00:21:46;;;;;;;;;;;13.60;59.10;;;;;;5087861;28;20416;-71
2023/06/04 00:24:14;;;;;;;;;;;13.70;59.00;;;;;;5087810;28;19915;-71
2023/06/04 00:26:40;;;;;;;;;;;13.70;58.90;;;;;;5087797;28;19916;-72
2023/06/04 00:29:05;;;;;;;;;;;13.70;59.00;;;;;;5087813;28;19912;-73
2023/06/04 00:31:31;;;;;;;;;;;13.70;59.00;;;;;;5087784;28;19916;-71
2023/06/04 00:33:57;;;;;;;;;;;13.70;59.10;;;;;;5086606;28;20368;-71
2023/06/04 00:36:22;;;;;;;;;;;13.70;58.90;;;;;;5087774;28;19916;-72
2023/06/04 00:38:48;;;;;;;;;;;13.80;58.90;;;;;;5087725;28;19908;-71
2023/06/04 00:41:13;;;;;;;;;;;13.80;58.80;;;;;;5087723;28;20165;-71
2023/06/04 00:43:39;;;;;;;;;;;13.90;58.80;;;;;;5087603;28;20403;-72
2023/06/04 00:46:05;;;;;;;;;;;14.00;58.70;;;;;;5087737;28;19912;-71
2023/06/04 00:48:32;;;;;;;;;;;14.00;58.60;;;;;;5087797;28;19916;-71
2023/06/04 00:50:57;;;;;;;;;;;14.10;58.70;;;;;;5087563;28;19931;-71
2023/06/04 00:53:24;;;;;;;;;;;14.10;58.70;;;;;;5087621;28;20284;-71
2023/06/04 00:55:50;;;;;;;;;;;14.20;58.80;;;;;;5087621;28;19912;-71
2023/06/04 00:58:16;;;;;;;;;;;14.30;58.80;;;;;;5087428;28;19951;-71
2023/06/04 01:00:42;;;;;;;;;;;14.30;58.80;;;;;;5087374;28;19955;-71
2023/06/04 01:03:13;;;;;;;;;;;14.30;58.80;;;;;;5086054;28;19939;-71
2023/06/04 01:05:39;;;;;;;;;;;14.40;58.90;;;;;;5087339;28;19938;-71
2023/06/04 01:08:05;;;;;;;;;;;14.30;58.80;;;;;;5087387;28;20376;-71
2023/06/04 01:10:31;;;;;;;;;;;14.30;58.90;;;;;;5087830;28;19912;-71
2023/06/04 01:12:56;;;;;;;;;;;14.30;59.00;;;;;;5087407;28;19923;-71
2023/06/04 01:15:22;;;;;;;;;;;14.30;59.00;;;;;;5086221;28;19913;-71
2023/06/04 01:17:51;;;;;;;;;;;14.30;59.10;;;;;;5087244;28;19937;-71
2023/06/04 01:20:35;;;;;;;;;;;14.30;59.00;;;;;;5087417;28;19991;-71
2023/06/04 01:23:20;;;;;;;;;;;14.30;59.10;;;;;;5090501;28;19916;-71
2023/06/04 01:25:49;;;;;;;;;;;14.30;59.10;;;;;;5083374;28;19908;-71
2023/06/04 01:28:15;;;;;;;;;;;14.20;59.10;;;;;;5090885;28;19923;-71
2023/06/04 01:30:43;;;;;;;;;;;14.10;59.10;;;;;;5090872;28;19909;-71
2023/06/04 01:33:12;;;;;;;;;;;14.10;59.30;;;;;;5090899;28;19934;-71
2023/06/04 01:35:38;;;;;;;;;;;14.00;59.20;;;;;;5090820;28;20103;-71
2023/06/04 01:38:03;;;;;;;;;;;14.00;59.20;;;;;;5090761;28;19961;-71
2023/06/04 01:40:29;;;;;;;;;;;14.00;59.20;;;;;;5090794;28;20789;-71
2023/06/04 01:42:55;;;;;;;;;;;13.90;59.20;;;;;;5090699;28;20048;-71
2023/06/04 01:45:21;;;;;;;;;;;13.90;59.10;;;;;;5090617;28;19912;-71
2023/06/04 01:47:47;;;;;;;;;;;13.90;59.10;;;;;;5089190;28;20366;-71
2023/06/04 01:50:12;;;;;;;;;;;13.80;59.10;;;;;;5089076;28;19920;-71
2023/06/04 01:52:38;;;;;;;;;;;13.80;59.10;;;;;;5090520;28;19931;-71
2023/06/04 01:55:04;;;;;;;;;;;13.70;59.10;;;;;;5090241;28;19977;-71
2023/06/04 01:57:30;;;;;;;;;;;13.70;59.10;;;;;;5090405;28;19962;-70
2023/06/04 01:59:56;;;;;;;;;;;13.70;59.10;;;;;;5090002;28;19912;-71
2023/06/04 02:02:21;;;;;;;;;;;13.60;59.10;;;;;;5071703;28;19924;-71
2023/06/04 02:04:47;;;;;;;;;;;13.50;59.30;;;;;;5090067;28;20360;-71
2023/06/04 02:07:20;;;;;;;;;;;13.50;59.30;;;;;;5090066;28;20261;-71
2023/06/04 02:09:46;;;;;;;;;;;13.40;59.30;;;;;;5090110;28;19909;-71
2023/06/04 02:12:11;;;;;;;;;;;13.30;59.30;;;;;;5089991;28;19916;-71
2023/06/04 02:14:37;;;;;;;;;;;13.30;59.40;;;;;;5089872;28;19913;-71
2023/06/04 02:17:04;;;;;;;;;;;13.20;59.50;;;;;;5089757;28;19912;-71
2023/06/04 02:19:33;;;;;;;;;;;13.20;59.50;;;;;;5089595;28;20057;-70
2023/06/04 02:21:58;;;;;;;;;;;13.20;59.50;;;;;;5088593;28;19965;-71
2023/06/04 02:24:24;;;;;;;;;;;13.20;59.50;;;;;;5089836;28;20365;-71
2023/06/04 02:26:49;;;;;;;;;;;13.10;59.50;;;;;;5089676;28;19916;-71
2023/06/04 02:29:15;;;;;;;;;;;13.20;59.60;;;;;;5089751;28;19919;-71
2023/06/04 02:31:41;;;;;;;;;;;13.20;59.50;;;;;;5088283;28;19965;-71
2023/06/04 02:34:06;;;;;;;;;;;13.30;59.50;;;;;;5089452;28;20391;-71
2023/06/04 02:36:32;;;;;;;;;;;13.30;59.30;;;;;;5089666;28;19920;-71
2023/06/04 02:38:57;;;;;;;;;;;13.40;59.20;;;;;;5089393;28;19926;-71
2023/06/04 02:41:23;;;;;;;;;;;13.40;59.10;;;;;;5089573;28;19952;-71
2023/06/04 02:43:49;;;;;;;;;;;13.40;59.00;;;;;;5089312;28;19954;-71
2023/06/04 02:46:14;;;;;;;;;;;13.50;59.00;;;;;;5089423;28;19927;-71
2023/06/04 02:48:40;;;;;;;;;;;13.60;59.00;;;;;;5089359;28;19920;-71
2023/06/04 02:51:05;;;;;;;;;;;13.60;58.90;;;;;;5089365;28;20364;-71
2023/06/04 02:53:31;;;;;;;;;;;13.60;59.00;;;;;;5089243;28;20018;-71
2023/06/04 02:55:57;;;;;;;;;;;13.70;59.10;;;;;;5089301;28;19915;-71
2023/06/04 02:58:24;;;;;;;;;;;13.70;59.00;;;;;;5089176;28;20028;-71
2023/06/04 03:00:52;;;;;;;;;;;13.70;59.10;;;;;;5089003;28;19923;-71
2023/06/04 03:03:17;;;;;;;;;;;13.70;59.10;;;;;;5089132;28;19955;-71
2023/06/04 03:05:43;;;;;;;;;;;13.70;59.00;;;;;;5089164;28;19959;-71
2023/06/04 03:08:08;;;;;;;;;;;13.70;59.10;;;;;;5088991;28;19912;-71
2023/06/04 03:10:34;;;;;;;;;;;13.60;59.10;;;;;;5089057;28;19913;-71
2023/06/04 03:12:59;;;;;;;;;;;13.60;59.20;;;;;;5088969;28;19920;-71
2023/06/04 03:15:25;;;;;;;;;;;13.60;59.20;;;;;;5089456;28;19959;-72
2023/06/04 03:17:51;;;;;;;;;;;13.50;59.20;;;;;;5088857;28;20359;-71
2023/06/04 03:20:16;;;;;;;;;;;13.50;59.20;;;;;;5088796;28;19964;-71
2023/06/04 03:22:42;;;;;;;;;;;13.40;59.30;;;;;;5088769;28;19924;-71
2023/06/04 03:25:08;;;;;;;;;;;13.40;59.20;;;;;;5088891;28;20562;-71
2023/06/04 03:27:33;;;;;;;;;;;13.40;59.20;;;;;;5088895;28;19947;-71
2023/06/04 03:29:59;;;;;;;;;;;13.30;59.30;;;;;;5088658;28;19916;-71
2023/06/04 03:32:25;;;;;;;;;;;13.20;59.30;;;;;;5088625;28;19919;-71
2023/06/04 03:34:50;;;;;;;;;;;13.20;59.50;;;;;;5088649;28;19933;-71
2023/06/04 03:37:16;;;;;;;;;;;13.10;59.50;;;;;;5088589;28;20042;-71
2023/06/04 03:39:42;;;;;;;;;;;13.10;59.50;;;;;;5088463;28;19912;-71
2023/06/04 03:42:07;;;;;;;;;;;13.10;59.60;;;;;;5088417;28;19927;-71
2023/06/04 03:44:33;;;;;;;;;;;13.10;59.60;;;;;;5087727;28;20004;-71
2023/06/04 03:46:59;;;;;;;;;;;13.20;59.50;;;;;;5087176;28;19919;-71
2023/06/04 03:49:24;;;;;;;;;;;13.10;59.40;;;;;;5088274;28;19948;-71
2023/06/04 03:51:50;;;;;;;;;;;13.10;59.50;;;;;;5088363;28;20016;-71
2023/06/04 03:54:19;;;;;;;;;;;13.10;59.60;;;;;;5086915;28;19916;-71
2023/06/04 03:56:45;;;;;;;;;;;13.10;59.50;;;;;;5088131;28;19916;-71
2023/06/04 03:59:10;;;;;;;;;;;13.20;59.50;;;;;;5088134;28;19912;-71
2023/06/04 04:01:36;;;;;;;;;;;13.20;59.50;;;;;;5086567;28;19990;-71
2023/06/04 04:04:04;;;;;;;;;;;13.20;59.40;;;;;;5087702;28;21610;-71
2023/06/04 04:06:29;;;;;;;;;;;13.20;59.40;;;;;;5088089;28;19923;-71
2023/06/04 04:08:55;;;;;;;;;;;13.20;59.40;;;;;;5088066;28;20296;-71
2023/06/04 04:11:21;;;;;;;;;;;13.20;59.40;;;;;;5088370;28;20327;-71
2023/06/04 04:13:47;;;;;;;;;;;13.10;59.40;;;;;;5086713;28;19987;-71
2023/06/04 04:16:13;;;;;;;;;;;13.10;59.50;;;;;;5088499;28;20389;-71
2023/06/04 04:18:40;;;;;;;;;;;13.10;59.50;;;;;;5087921;28;20268;-70
2023/06/04 04:21:06;;;;;;;;;;;13.10;59.50;;;;;;5087966;28;20299;-71
2023/06/04 04:23:32;;;;;;;;;;;13.00;59.60;;;;;;5086620;28;20002;-71
2023/06/04 04:26:02;;;;;;;;;;;13.00;59.60;;;;;;5088020;28;19920;-71
2023/06/04 04:28:28;;;;;;;;;;;12.90;59.60;;;;;;5087987;28;19948;-71
2023/06/04 04:30:56;;;;;;;;;;;12.80;59.70;;;;;;5087834;28;19909;-71
2023/06/04 04:33:24;;;;;;;;;;;12.80;59.70;;;;;;5087911;28;19962;-71
2023/06/04 04:35:50;;;;;;;;;;;12.80;59.80;;;;;;5086534;28;20031;-71
2023/06/04 04:38:17;;;;;;;;;;;12.80;59.80;;;;;;5087905;28;19928;-71
2023/06/04 04:40:42;;;;;;;;;;;12.90;59.90;;;;;;5087771;28;19912;-71
2023/06/04 04:43:08;;;;;;;;;;;13.00;59.90;;;;;;5087671;28;19942;-71
2023/06/04 04:45:33;;;;;;;;;;;13.00;59.70;;;;;;5087731;28;19908;-71
2023/06/04 04:47:59;;;;;;;;;;;13.10;59.70;;;;;;5087741;28;19916;-71
2023/06/04 04:50:24;;;;;;;;;;;13.10;59.70;;;;;;5087642;28;20014;-71
2023/06/04 04:52:50;;;;;;;;;;;13.20;59.70;;;;;;5087582;28;20429;-71
2023/06/04 04:55:15;;;;;;;;;;;13.20;59.70;;;;;;5088298;28;19944;-71
2023/06/04 04:57:41;;;;;;;;;;;13.30;59.60;;;;;;5091481;28;19948;-71
2023/06/04 05:00:09;;;;;;;;;;;13.30;59.60;;;;;;5091477;28;19913;-71
2023/06/04 05:02:35;;;;;;;;;;;13.30;59.60;;;;;;5091392;28;19989;-71
2023/06/04 05:05:00;;;;;;;;;;;13.30;59.70;;;;;;5091451;28;19923;-71
2023/06/04 05:07:26;;;;;;;;;;;13.30;59.70;;;;;;5091703;28;19912;-71
2023/06/04 05:09:52;;;;;;;;;;;13.40;59.60;;;;;;5090131;28;19936;-71
2023/06/04 05:12:18;;;;;;;;;;;13.50;59.50;;;;;;5091344;28;20480;-71
2023/06/04 05:14:44;;;;;;;;;;;13.60;59.40;;;;;;5091306;28;20341;-71
2023/06/04 05:17:10;;;;;;;;;;;13.70;59.50;;;;;;5091303;28;20006;-70
2023/06/04 05:19:37;;;;;;;;;;;13.70;59.50;;;;;;5091205;28;19918;-71
2023/06/04 05:22:02;;;;;;;;;;;13.80;59.50;;;;;;5091173;28;19908;-71
2023/06/04 05:24:28;;;;;;;;;;;13.80;59.50;;;;;;5091056;28;19962;-71
2023/06/04 05:26:54;;;;;;;;;;;14.00;59.50;;;;;;5091093;28;19908;-71
2023/06/04 05:29:20;;;;;;;;;;;14.00;59.40;;;;;;5090956;28;19916;-71
2023/06/04 05:31:46;;;;;;;;;;;14.00;59.50;;;;;;5090953;28;19919;-71
2023/06/04 05:34:16;;;;;;;;;;;14.10;59.50;;;;;;5089607;28;19915;-71
2023/06/04 05:36:42;;;;;;;;;;;14.10;59.60;;;;;;5090722;28;19944;-71
2023/06/04 05:39:08;;;;;;;;;;;14.20;59.60;;;;;;5090675;28;19951;-71
2023/06/04 05:41:35;;;;;;;;;;;14.40;59.70;;;;;;5090787;28;19953;-71
2023/06/04 05:44:01;;;;;;;;;;;14.50;59.70;;;;;;5089233;28;19920;-71
2023/06/04 05:46:27;;;;;;;;;;;15.00;59.70;;;;;;5090659;28;19919;-71
2023/06/04 05:48:53;;;;;;;;;;;15.60;58.90;;;;;;5090529;28;19912;-71
2023/06/04 05:51:19;;;;;;;;;;;15.80;58.90;;;;;;5090524;28;20390;-71
2023/06/04 05:53:44;;;;;;;;;;;15.70;58.50;;;;;;5090511;28;19916;-70
2023/06/04 05:56:10;;;;;;;;;;;15.50;58.90;;;;;;5090415;28;20253;-71
2023/06/04 05:58:36;;;;;;;;;;;15.90;59.80;;;;;;5090296;28;19912;-71
2023/06/04 06:01:02;;;;;;;;;;;17.10;59.60;;;;;;5090040;28;19944;-71
2023/06/04 06:03:28;;;;;;;;;;;18.60;58.80;;;;;;5090312;28;19921;-71
2023/06/04 06:05:54;;;;;;;;;;;20.00;57.80;;;;;;5090204;28;19909;-71
2023/06/04 06:08:20;;;;;;;;;;;21.10;56.90;;;;;;5089336;28;19924;-71
2023/06/04 06:10:46;;;;;;;;;;;21.80;56.50;;;;;;5090082;28;19963;-71
2023/06/04 06:13:12;;;;;;;;;;;22.40;57.00;;;;;;5089950;28;20372;-71
2023/06/04 06:15:38;;;;;;;;;;;23.00;56.50;;;;;;5089809;28;19919;-71
2023/06/04 06:18:04;;;;;;;;;;;23.70;56.30;;;;;;5089826;28;20405;-71
2023/06/04 06:20:29;;;;;;;;;;;24.00;56.10;;;;;;5089896;28;19924;-71
2023/06/04 06:22:55;;;;;;;;;;;24.10;56.30;;;;;;5089797;28;20519;-71
2023/06/04 06:25:20;;;;;;;;;;;24.30;56.70;;;;;;5089744;28;19916;-71
2023/06/04 06:27:48;;;;;;;;;;;24.80;56.60;;;;;;5088487;28;19912;-71
2023/06/04 06:30:14;;;;;;;;;;;25.10;56.60;;;;;;5089601;28;20008;-71
2023/06/04 06:32:39;;;;;;;;;;;25.30;56.70;;;;;;5089728;28;19913;-71
2023/06/04 06:35:05;;;;;;;;;;;25.40;57.10;;;;;;5089567;28;19923;-71
2023/06/04 06:37:31;;;;;;;;;;;25.70;57.20;;;;;;5089585;28;20383;-71
2023/06/04 06:39:57;;;;;;;;;;;26.00;57.30;;;;;;5089439;28;20380;-71
2023/06/04 06:42:22;;;;;;;;;;;26.40;57.40;;;;;;5088009;28;19968;-71
2023/06/04 06:44:48;;;;;;;;;;;27.00;57.40;;;;;;5088169;28;20309;-71
2023/06/04 06:47:14;;;;;;;;;;;27.50;57.20;;;;;;5089195;28;19991;-71
2023/06/04 06:49:40;;;;;;;;;;;27.70;56.70;;;;;;5089194;28;19923;-71
2023/06/04 06:52:06;;;;;;;;;;;27.70;57.00;;;;;;5089444;28;19908;-72
2023/06/04 06:54:31;;;;;;;;;;;27.80;57.50;;;;;;5089087;28;19914;-71
2023/06/04 06:56:57;;;;;;;;;;;28.30;57.50;;;;;;5089088;28;20367;-71
2023/06/04 06:59:23;;;;;;;;;;;28.80;57.40;;;;;;5088832;28;19912;-71
2023/06/04 07:01:49;;;;;;;;;;;29.20;57.20;;;;;;5087531;28;20136;-72
2023/06/04 07:04:15;;;;;;;;;;;29.50;57.20;;;;;;5088758;28;19920;-71
2023/06/04 07:06:41;;;;;;;;;;;29.50;57.30;;;;;;5088911;28;19969;-71
2023/06/04 07:09:07;;;;;;;;;;;29.70;57.50;;;;;;5088835;28;19912;-72
2023/06/04 07:11:32;;;;;;;;;;;29.90;57.50;;;;;;5088919;28;19943;-72
2023/06/04 07:13:58;;;;;;;;;;;30.20;57.60;;;;;;5088806;28;19908;-71
2023/06/04 07:16:24;;;;;;;;;;;30.60;57.50;;;;;;5088838;28;19912;-72
2023/06/04 07:18:49;;;;;;;;;;;30.90;57.70;;;;;;5087713;28;19920;-72
2023/06/04 07:21:15;;;;;;;;;;;31.10;57.60;;;;;;5088672;28;19913;-71
2023/06/04 07:23:41;;;;;;;;;;;31.20;57.40;;;;;;5087293;28;20287;-71
2023/06/04 07:26:07;;;;;;;;;;;31.10;58.00;;;;;;5088582;28;20305;-72
2023/06/04 07:28:32;;;;;;;;;;;30.90;58.10;;;;;;5088345;28;19908;-72
2023/06/04 07:30:58;;;;;;;;;;;30.80;59.10;;;;;;5088444;28;19935;-72
2023/06/04 07:33:24;;;;;;;;;;;30.80;58.80;;;;;;5088323;28;19958;-72
2023/06/04 07:35:50;;;;;;;;;;;30.80;59.10;;;;;;5088346;28;19973;-72
2023/06/04 07:38:15;;;;;;;;;;;31.10;59.40;;;;;;5088322;28;19909;-72
2023/06/04 07:40:41;;;;;;;;;;;31.50;59.10;;;;;;5086902;28;19951;-71
2023/06/04 07:43:07;;;;;;;;;;;31.80;59.30;;;;;;5088254;28;19916;-71
2023/06/04 07:45:32;;;;;;;;;;;32.20;59.30;;;;;;5088233;28;19908;-72
2023/06/04 07:47:58;;;;;;;;;;;32.40;59.20;;;;;;5088002;28;19916;-72
2023/06/04 07:50:24;;;;;;;;;;;32.40;59.20;;;;;;5088021;28;20260;-72
2023/06/04 07:52:49;;;;;;;;;;;32.40;59.40;;;;;;5086593;28;19923;-72
2023/06/04 07:55:15;;;;;;;;;;;32.60;59.10;;;;;;5088018;28;19930;-71
2023/06/04 07:57:41;;;;;;;;;;;32.70;59.00;;;;;;5087880;28;20347;-72
2023/06/04 08:00:08;;;;;;;;;;;33.00;59.50;;;;;;5087974;28;19965;-71
2023/06/04 08:02:33;;;;;;;;;;;33.40;59.40;;;;;;5087721;28;19984;-71
2023/06/04 08:05:00;;;;;;;;;;;33.50;59.30;;;;;;5087901;28;20385;-71
2023/06/04 08:07:25;;;;;;;;;;;33.40;59.40;;;;;;5087877;28;19924;-72
2023/06/04 08:09:51;;;;;;;;;;;33.20;60.00;;;;;;5087774;28;19951;-72
2023/06/04 08:12:17;;;;;;;;;;;33.10;60.10;;;;;;5087972;28;19916;-72
2023/06/04 08:14:43;;;;;;;;;;;33.10;60.60;;;;;;5087782;28;19908;-72
2023/06/04 08:17:08;;;;;;;;;;;33.40;60.60;;;;;;5087729;28;20023;-71
2023/06/04 08:19:34;;;;;;;;;;;34.00;60.30;;;;;;5087678;28;19928;-72
2023/06/04 08:22:00;;;;;;;;;;;34.30;59.80;;;;;;5087666;28;20236;-71
2023/06/04 08:24:25;;;;;;;;;;;34.30;59.70;;;;;;5087452;28;19924;-72
2023/06/04 08:26:51;;;;;;;;;;;34.20;59.80;;;;;;5087382;28;19966;-71
2023/06/04 08:29:17;;;;;;;;;;;34.10;60.00;;;;;;5087447;28;19916;-72
2023/06/04 08:31:42;;;;;;;;;;;34.20;60.50;;;;;;5090803;28;19912;-72
2023/06/04 08:34:08;;;;;;;;;;;34.40;60.50;;;;;;5091256;28;20268;-72
2023/06/04 08:36:34;;;;;;;;;;;34.40;60.40;;;;;;5091542;28;19919;-72
2023/06/04 08:38:59;;;;;;;;;;;34.40;60.50;;;;;;5091376;28;19923;-72
2023/06/04 08:41:29;;;;;;;;;;;34.30;60.70;;;;;;5090200;28;19976;-72
2023/06/04 08:43:55;;;;;;;;;;;34.30;61.00;;;;;;5089989;28;20269;-72
2023/06/04 08:46:21;;;;;;;;;;;34.50;61.00;;;;;;5091603;28;19937;-72
2023/06/04 08:48:47;;;;;;;;;;;34.50;61.10;;;;;;5091143;28;19950;-72
2023/06/04 08:51:13;;;;;;;;;;;34.60;61.50;;;;;;5091279;28;20010;-71
2023/06/04 08:53:39;;;;;;;;;;;34.80;61.30;;;;;;5090915;28;19912;-72
2023/06/04 08:56:05;;;;;;;;;;;34.90;61.40;;;;;;5091180;28;19916;-72
2023/06/04 08:58:32;;;;;;;;;;;34.90;61.40;;;;;;5089647;28;20002;-72
2023/06/04 09:00:57;;;;;;;;;;;34.70;61.40;;;;;;5091084;28;20417;-72
2023/06/04 09:03:24;;;;;;;;;;;34.60;61.90;;;;;;5090971;28;19916;-72
2023/06/04 09:05:50;;;;;;;;;;;34.60;61.90;;;;;;5090779;28;19912;-71
2023/06/04 09:08:19;;;;;;;;;;;34.70;61.70;;;;;;5090867;28;20299;-69
2023/06/04 09:10:46;;;;;;;;;;;34.80;61.40;;;;;;5090929;28;19912;-69
2023/06/04 09:13:13;;;;;;;;;;;34.60;61.60;;;;;;5090724;28;20371;-69
2023/06/04 09:15:38;;;;;;;;;;;34.60;61.80;;;;;;5090545;28;19908;-69
2023/06/04 09:18:04;;;;;;;;;;;34.60;61.70;;;;;;5089258;28;19966;-69
2023/06/04 09:20:32;;;;;;;;;;;34.70;62.40;;;;;;5090579;28;19916;-69
2023/06/04 09:22:58;;;;;;;;;;;34.80;62.00;;;;;;5090499;28;19990;-69
2023/06/04 09:25:27;;;;;;;;;;;34.90;62.30;;;;;;5090729;28;19909;-69
2023/06/04 09:27:55;;;;;;;;;;;34.60;62.60;;;;;;5090567;28;19912;-69
2023/06/04 09:30:20;;;;;;;;;;;34.40;62.80;;;;;;5090345;28;19912;-69
2023/06/04 09:32:46;;;;;;;;;;;34.60;62.80;;;;;;5090304;28;19973;-69
2023/06/04 09:35:13;;;;;;;;;;;34.60;62.90;;;;;;5072315;28;19912;-71
2023/06/04 09:37:43;;;;;;;;;;;34.60;62.60;;;;;;5090389;28;19974;-71
2023/06/04 09:40:09;;;;;;;;;;;34.80;62.70;;;;;;5088958;28;19912;-71
2023/06/04 09:42:44;;;;;;;;;;;35.00;62.90;;;;;;5089141;28;19964;-71
2023/06/04 09:45:10;;;;;;;;;;;35.00;62.80;;;;;;5090307;28;19912;-71
2023/06/04 09:47:40;;;;;;;;;;;34.80;62.90;;;;;;5090182;28;19920;-71
2023/06/04 09:50:06;;;;;;;;;;;34.40;63.20;;;;;;5089713;28;19962;-71
2023/06/04 09:52:33;;;;;;;;;;;34.00;63.60;;;;;;5089485;28;19918;-71
2023/06/04 09:54:58;;;;;;;;;;;33.80;63.90;;;;;;5089385;28;19962;-71
2023/06/04 09:57:25;;;;;;;;;;;33.90;63.80;;;;;;5088359;28;20265;-71
2023/06/04 09:59:53;;;;;;;;;;;34.10;63.50;;;;;;5089469;28;19912;-77
2023/06/04 10:02:20;;;;;;;;;;;34.10;63.10;;;;;;5089192;28;19916;-77
2023/06/04 10:04:48;;;;;;;;;;;34.00;63.00;;;;;;5089630;28;20410;-77
2023/06/04 10:07:15;;;;;;;;;;;33.80;63.20;;;;;;5088114;28;19920;-77
2023/06/04 10:09:45;;;;;;;;;;;33.80;63.40;;;;;;5089558;28;19959;-77
2023/06/04 10:12:15;;;;;;;;;;;33.70;63.70;;;;;;5089707;28;19915;-75
2023/06/04 10:14:56;;;;;;;;;;;33.90;63.60;;;;;;5089605;28;19916;-77
2023/06/04 10:17:23;;;;;;;;;;;34.10;63.20;;;;;;5089045;28;19953;-77
2023/06/04 10:19:51;;;;;;;;;;;34.20;63.10;;;;;;5089208;28;19919;-77
2023/06/04 10:22:17;;;;;;;;;;;34.40;62.60;;;;;;5089051;28;20014;-77
2023/06/04 10:24:43;;;;;;;;;;;34.40;62.50;;;;;;5089313;28;20427;-77
2023/06/04 10:27:10;;;;;;;;;;;34.30;62.80;;;;;;5088943;28;20012;-74
2023/06/04 10:29:36;;;;;;;;;;;34.20;62.90;;;;;;5088970;28;19915;-77
2023/06/04 10:32:02;;;;;;;;;;;34.10;63.10;;;;;;5089639;28;20272;-77
2023/06/04 10:34:28;;;;;;;;;;;33.80;63.30;;;;;;5089755;28;20292;-76
2023/06/04 10:36:54;;;;;;;;;;;33.70;63.50;;;;;;5089603;28;19948;-77
2023/06/04 10:39:29;;;;;;;;;;;33.70;63.70;;;;;;5089023;28;19915;-76
2023/06/04 10:42:02;;;;;;;;;;;34.00;63.60;;;;;;5087737;28;19965;-77
2023/06/04 10:44:29;;;;;;;;;;;34.40;63.40;;;;;;5089055;28;19912;-77
2023/06/04 10:46:55;;;;;;;;;;;34.60;62.80;;;;;;5088981;28;19919;-76
2023/06/04 10:49:27;;;;;;;;;;;34.40;63.50;;;;;;5088629;28;19912;-77
2023/06/04 10:51:55;;;;;;;;;;;34.40;62.70;;;;;;5088930;28;20283;-77
2023/06/04 10:54:25;;;;;;;;;;;34.30;62.80;;;;;;5087276;28;20418;-73
2023/06/04 10:56:51;;;;;;;;;;;34.30;62.90;;;;;;5088736;28;19912;-73
2023/06/04 10:59:18;;;;;;;;;;;34.40;63.40;;;;;;5087307;28;19936;-73
2023/06/04 11:01:44;;;;;;;;;;;34.90;63.30;;;;;;5088440;28;19946;-73
2023/06/04 11:04:22;;;;;;;;;;;35.20;62.70;;;;;;5088436;28;19928;-74
2023/06/04 11:06:48;;;;;;;;;;;35.20;62.50;;;;;;5088345;28;20002;-73
2023/06/04 11:09:18;;;;;;;;;;;35.00;62.50;;;;;;5088100;28;19919;-74
2023/06/04 11:11:44;;;;;;;;;;;34.90;62.30;;;;;;5088441;28;19946;-74
2023/06/04 11:14:12;;;;;;;;;;;34.80;62.10;;;;;;5088175;28;20292;-73
2023/06/04 11:16:38;;;;;;;;;;;34.30;62.30;;;;;;5088339;28;19918;-73
2023/06/04 11:19:03;;;;;;;;;;;34.10;62.60;;;;;;5087777;28;20007;-73
2023/06/04 11:21:29;;;;;;;;;;;34.00;62.80;;;;;;5087937;28;19920;-74
2023/06/04 11:23:57;;;;;;;;;;;34.10;63.40;;;;;;5087943;28;20377;-74
2023/06/04 11:26:29;;;;;;;;;;;34.20;63.00;;;;;;5087897;28;19954;-74
2023/06/04 11:28:55;;;;;;;;;;;34.10;63.10;;;;;;5087929;28;19991;-73
2023/06/04 11:31:21;;;;;;;;;;;34.10;63.20;;;;;;5087780;28;19915;-74
2023/06/04 11:33:47;;;;;;;;;;;34.30;63.10;;;;;;5086267;28;20344;-73
2023/06/04 11:36:23;;;;;;;;;;;34.30;62.90;;;;;;5088230;28;20379;-73
2023/06/04 11:38:58;;;;;;;;;;;34.20;62.80;;;;;;5088128;28;20645;-73
2023/06/04 11:41:26;;;;;;;;;;;34.00;62.90;;;;;;5088140;28;19953;-73
2023/06/04 11:43:52;;;;;;;;;;;34.00;62.80;;;;;;5087706;28;19912;-73
2023/06/04 11:46:17;;;;;;;;;;;34.10;63.30;;;;;;5087648;28;19931;-73
2023/06/04 11:48:43;;;;;;;;;;;34.30;63.10;;;;;;5087153;28;19916;-73
2023/06/04 11:51:09;;;;;;;;;;;34.30;63.30;;;;;;5087647;28;19935;-74
2023/06/04 11:53:36;;;;;;;;;;;34.10;63.10;;;;;;5069378;28;20399;-73
2023/06/04 11:56:02;;;;;;;;;;;33.80;63.40;;;;;;5087674;28;20285;-74
2023/06/04 11:58:28;;;;;;;;;;;33.70;63.40;;;;;;5087208;28;19915;-74
2023/06/04 12:00:55;;;;;;;;;;;33.70;62.90;;;;;;5087105;28;20447;-74
2023/06/04 12:03:30;;;;;;;;;;;33.50;62.50;;;;;;5087108;28;19922;-73
2023/06/04 12:05:55;;;;;;;;;;;33.10;62.70;;;;;;5085107;28;19908;-73
2023/06/04 12:08:21;;;;;;;;;;;32.80;62.90;;;;;;5086771;28;19931;-73
2023/06/04 12:10:47;;;;;;;;;;;32.60;63.30;;;;;;5085494;28;19912;-73
2023/06/04 12:13:12;;;;;;;;;;;32.30;63.40;;;;;;5087132;28;20238;-73
2023/06/04 12:15:38;;;;;;;;;;;32.00;63.50;;;;;;5087050;28;19992;-73
2023/06/04 12:18:06;;;;;;;;;;;31.90;63.80;;;;;;5087067;28;19908;-74
2023/06/04 12:20:38;;;;;;;;;;;32.00;63.30;;;;;;5085816;28;19912;-73
2023/06/04 12:23:05;;;;;;;;;;;31.80;63.10;;;;;;5087035;28;19919;-73
2023/06/04 12:25:32;;;;;;;;;;;31.70;63.80;;;;;;5085341;28;19912;-73
2023/06/04 12:27:58;;;;;;;;;;;32.10;64.00;;;;;;5086957;28;19998;-73
2023/06/04 12:30:34;;;;;;;;;;;32.40;63.70;;;;;;5086913;28;19958;-73
2023/06/04 12:32:59;;;;;;;;;;;32.60;63.50;;;;;;5087244;28;19915;-73
2023/06/04 12:35:25;;;;;;;;;;;32.90;63.60;;;;;;5086860;28;20383;-73
2023/06/04 12:37:51;;;;;;;;;;;33.00;63.30;;;;;;5085658;28;20360;-73
2023/06/04 12:40:16;;;;;;;;;;;32.90;63.00;;;;;;5086491;28;20348;-73
2023/06/04 12:42:43;;;;;;;;;;;32.40;62.80;;;;;;5087126;28;19923;-73
2023/06/04 12:45:09;;;;;;;;;;;32.30;62.90;;;;;;5086749;28;19912;-74
2023/06/04 12:47:34;;;;;;;;;;;32.20;63.00;;;;;;5086599;28;19912;-74
2023/06/04 12:50:00;;;;;;;;;;;32.20;63.00;;;;;;5086313;28;20030;-74
2023/06/04 12:52:26;;;;;;;;;;;32.30;63.10;;;;;;5086785;28;19912;-73
2023/06/04 12:54:51;;;;;;;;;;;32.20;62.90;;;;;;5086558;28;20260;-73
2023/06/04 12:57:17;;;;;;;;;;;32.00;62.90;;;;;;5086242;28;19916;-73
2023/06/04 12:59:42;;;;;;;;;;;31.80;63.00;;;;;;5086038;28;19972;-73
2023/06/04 13:02:08;;;;;;;;;;;31.70;63.00;;;;;;5085159;28;20478;-73
2023/06/04 13:04:33;;;;;;;;;;;31.50;62.70;;;;;;5085946;28;20301;-72
2023/06/04 13:06:59;;;;;;;;;;;31.30;62.40;;;;;;5085858;28;20013;-72
2023/06/04 13:09:25;;;;;;;;;;;31.10;62.50;;;;;;5085872;28;19912;-72
2023/06/04 13:11:51;;;;;;;;;;;30.70;62.50;;;;;;5085311;28;20070;-72
2023/06/04 13:14:17;;;;;;;;;;;30.40;62.80;;;;;;5085428;28;19931;-73
2023/06/04 13:16:42;;;;;;;;;;;30.00;62.40;;;;;;5087283;28;19916;-72
2023/06/04 13:19:08;;;;;;;;;;;29.50;61.70;;;;;;5088924;28;20399;-72
2023/06/04 13:21:34;;;;;;;;;;;28.90;61.30;;;;;;5089140;28;19923;-72
2023/06/04 13:24:00;;;;;;;;;;;28.40;61.30;;;;;;5089255;28;19916;-73
2023/06/04 13:26:25;;;;;;;;;;;28.00;61.10;;;;;;5088314;28;19988;-73
2023/06/04 13:28:51;;;;;;;;;;;27.60;61.00;;;;;;5088803;28;19948;-73
2023/06/04 13:31:17;;;;;;;;;;;27.10;60.90;;;;;;5089055;28;19925;-73
2023/06/04 13:33:43;;;;;;;;;;;26.70;60.90;;;;;;5088649;28;20210;-72
2023/06/04 13:36:09;;;;;;;;;;;26.40;60.90;;;;;;5088965;28;20288;-72
2023/06/04 13:38:34;;;;;;;;;;;26.20;61.10;;;;;;5088309;28;19936;-73
2023/06/04 13:41:00;;;;;;;;;;;26.10;61.30;;;;;;5088341;28;19908;-73
2023/06/04 13:43:26;;;;;;;;;;;26.10;61.00;;;;;;5088244;28;20018;-73
2023/06/04 13:45:51;;;;;;;;;;;25.90;60.80;;;;;;5087878;28;19912;-73
2023/06/04 13:48:17;;;;;;;;;;;25.90;60.60;;;;;;5087703;28;19912;-72
2023/06/04 13:50:42;;;;;;;;;;;25.80;60.50;;;;;;5087846;28;19930;-73
2023/06/04 13:53:08;;;;;;;;;;;25.70;60.30;;;;;;5088165;28;20003;-73
2023/06/04 13:55:34;;;;;;;;;;;25.60;60.20;;;;;;5086752;28;20241;-73
2023/06/04 13:57:59;;;;;;;;;;;25.30;60.20;;;;;;5087984;28;19912;-72
2023/06/04 14:00:25;;;;;;;;;;;25.10;60.50;;;;;;5088532;28;19908;-73
2023/06/04 14:02:52;;;;;;;;;;;24.90;60.30;;;;;;5086276;28;19920;-73
2023/06/04 14:05:18;;;;;;;;;;;24.70;60.40;;;;;;5070210;28;20284;-73
2023/06/04 14:07:43;;;;;;;;;;;24.60;60.60;;;;;;5087801;28;19940;-73
2023/06/04 14:10:10;;;;;;;;;;;24.60;60.80;;;;;;5087653;28;19916;-73
2023/06/04 14:12:36;;;;;;;;;;;24.60;60.20;;;;;;5087515;28;19912;-72